sensor_id;sensor_type;location;lat;lon;timestamp;temperature;humidity
50556;DHT22;36508;52.512;13.450;2023-06-14T00:01:51;18.10;93.20
50556;DHT22;36508;52.512;13.450;2023-06-14T00:04:17;18.10;93.30
50556;DHT22;36508;52.512;13.450;2023-06-14T00:06:44;18.00;93.50
50556;DHT22;36508;52.512;13.450;2023-06-14T00:09:14;18.00;93.90
50556;DHT22;36508;52.512;13.450;2023-06-14T00:11:41;17.80;94.90
50556;DHT22;36508;52.512;13.450;2023-06-14T00:14:07;17.70;95.70
50556;DHT22;36508;52.512;13.450;2023-06-14T00:16:32;17.50;96.50
50556;DHT22;36508;52.512;13.450;2023-06-14T00:18:59;17.40;97.40
50556;DHT22;36508;52.512;13.450;2023-06-14T00:21:25;17.30;98.50
50556;DHT22;36508;52.512;13.450;2023-06-14T00:23:59;17.30;99.00
50556;DHT22;36508;52.512;13.450;2023-06-14T00:26:25;17.40;99.50
50556;DHT22;36508;52.512;13.450;2023-06-14T00:28:51;17.30;99.90
50556;DHT22;36508;52.512;13.450;2023-06-14T00:31:17;17.30;99.90
50556;DHT22;36508;52.512;13.450;2023-06-14T00:33:43;17.40;99.90
50556;DHT22;36508;52.512;13.450;2023-06-14T00:36:08;17.30;99.90
50556;DHT22;36508;52.512;13.450;2023-06-14T00:38:34;17.40;99.90
50556;DHT22;36508;52.512;13.450;2023-06-14T00:41:00;17.50;99.90
50556;DHT22;36508;52.512;13.450;2023-06-14T00:43:26;17.50;99.90
50556;DHT22;36508;52.512;13.450;2023-06-14T00:45:51;17.60;99.90
50556;DHT22;36508;52.512;13.450;2023-06-14T00:48:17;17.70;99.90
50556;DHT22;36508;52.512;13.450;2023-06-14T00:50:45;17.60;99.90
50556;DHT22;36508;52.512;13.450;2023-06-14T00:53:16;17.60;99.90
50556;DHT22;36508;52.512;13.450;2023-06-14T00:55:43;17.50;99.90
50556;DHT22;36508;52.512;13.450;2023-06-14T00:58:09;17.30;99.90
50556;DHT22;36508;52.512;13.450;2023-06-14T01:00:35;17.40;99.90
50556;DHT22;36508;52.512;13.450;2023-06-14T01:03:01;17.30;99.90
50556;DHT22;36508;52.512;13.450;2023-06-14T01:05:28;17.30;99.90
50556;DHT22;36508;52.512;13.450;2023-06-14T01:08:03;17.30;99.90
50556;DHT22;36508;52.512;13.450;2023-06-14T01:13:32;16.80;99.90
50556;DHT22;36508;52.512;13.450;2023-06-14T01:15:59;16.90;99.90
50556;DHT22;36508;52.512;13.450;2023-06-14T01:18:26;16.90;99.90
50556;DHT22;36508;52.512;13.450;2023-06-14T01:20:56;16.90;99.90
50556;DHT22;36508;52.512;13.450;2023-06-14T01:23:23;16.90;99.90
50556;DHT22;36508;52.512;13.450;2023-06-14T01:25:50;16.80;99.90
50556;DHT22;36508;52.512;13.450;2023-06-14T01:28:21;16.80;99.90
50556;DHT22;36508;52.512;13.450;2023-06-14T01:30:50;16.80;99.90
50556;DHT22;36508;52.512;13.450;2023-06-14T01:33:26;16.90;99.90
50556;DHT22;36508;52.512;13.450;2023-06-14T01:35:53;16.90;99.90
50556;DHT22;36508;52.512;13.450;2023-06-14T01:38:24;16.90;99.90
50556;DHT22;36508;52.512;13.450;2023-06-14T01:40:50;17.00;99.90
50556;DHT22;36508;52.512;13.450;2023-06-14T01:43:18;17.00;99.90
50556;DHT22;36508;52.512;13.450;2023-06-14T01:45:46;17.00;99.90
50556;DHT22;36508;52.512;13.450;2023-06-14T01:48:12;17.00;99.90
50556;DHT22;36508;52.512;13.450;2023-06-14T01:50:38;17.00;99.90
50556;DHT22;36508;52.512;13.450;2023-06-14T01:53:08;17.10;99.90
50556;DHT22;36508;52.512;13.450;2023-06-14T01:55:34;17.10;99.90
50556;DHT22;36508;52.512;13.450;2023-06-14T01:58:04;17.10;99.90
50556;DHT22;36508;52.512;13.450;2023-06-14T02:00:33;17.20;99.90
50556;DHT22;36508;52.512;13.450;2023-06-14T02:02:59;17.20;99.90
50556;DHT22;36508;52.512;13.450;2023-06-14T02:05:25;17.10;99.90
50556;DHT22;36508;52.512;13.450;2023-06-14T02:07:51;17.00;99.90
50556;DHT22;36508;52.512;13.450;2023-06-14T02:10:18;16.90;99.90
50556;DHT22;36508;52.512;13.450;2023-06-14T02:12:44;16.90;99.90
50556;DHT22;36508;52.512;13.450;2023-06-14T02:15:20;16.90;99.90
50556;DHT22;36508;52.512;13.450;2023-06-14T02:17:47;16.90;99.90
50556;DHT22;36508;52.512;13.450;2023-06-14T02:20:15;16.90;99.90
50556;DHT22;36508;52.512;13.450;2023-06-14T02:22:41;16.90;99.90
50556;DHT22;36508;52.512;13.450;2023-06-14T02:25:07;16.90;99.90
50556;DHT22;36508;52.512;13.450;2023-06-14T02:27:34;17.00;99.90
50556;DHT22;36508;52.512;13.450;2023-06-14T02:30:00;17.00;99.90
50556;DHT22;36508;52.512;13.450;2023-06-14T02:32:26;17.00;99.90
50556;DHT22;36508;52.512;13.450;2023-06-14T02:34:53;17.00;99.90
50556;DHT22;36508;52.512;13.450;2023-06-14T02:37:19;17.00;99.90
50556;DHT22;36508;52.512;13.450;2023-06-14T02:39:44;16.80;99.90
50556;DHT22;36508;52.512;13.450;2023-06-14T02:42:11;16.80;99.90
50556;DHT22;36508;52.512;13.450;2023-06-14T02:44:36;16.70;99.90
50556;DHT22;36508;52.512;13.450;2023-06-14T02:47:03;16.70;99.90
50556;DHT22;36508;52.512;13.450;2023-06-14T02:49:28;16.70;99.90
50556;DHT22;36508;52.512;13.450;2023-06-14T02:52:02;16.60;99.90
50556;DHT22;36508;52.512;13.450;2023-06-14T02:54:28;16.60;99.90
50556;DHT22;36508;52.512;13.450;2023-06-14T02:56:54;16.50;99.90
50556;DHT22;36508;52.512;13.450;2023-06-14T02:59:20;16.60;99.90
50556;DHT22;36508;52.512;13.450;2023-06-14T03:01:47;16.70;99.90
50556;DHT22;36508;52.512;13.450;2023-06-14T03:04:12;16.80;99.90
50556;DHT22;36508;52.512;13.450;2023-06-14T03:06:38;16.80;99.90
50556;DHT22;36508;52.512;13.450;2023-06-14T03:09:04;16.80;99.90
50556;DHT22;36508;52.512;13.450;2023-06-14T03:11:31;16.80;99.90
50556;DHT22;36508;52.512;13.450;2023-06-14T03:13:57;16.80;99.90
50556;DHT22;36508;52.512;13.450;2023-06-14T03:16:22;16.90;99.90
50556;DHT22;36508;52.512;13.450;2023-06-14T03:18:52;16.90;99.90
50556;DHT22;36508;52.512;13.450;2023-06-14T03:21:21;16.80;99.90
50556;DHT22;36508;52.512;13.450;2023-06-14T03:23:49;16.80;99.90
50556;DHT22;36508;52.512;13.450;2023-06-14T03:26:16;16.80;99.90
50556;DHT22;36508;52.512;13.450;2023-06-14T03:28:45;16.80;99.90
50556;DHT22;36508;52.512;13.450;2023-06-14T03:31:13;16.90;99.90
50556;DHT22;36508;52.512;13.450;2023-06-14T03:33:46;16.80;99.90
50556;DHT22;36508;52.512;13.450;2023-06-14T03:36:12;16.70;99.90
50556;DHT22;36508;52.512;13.450;2023-06-14T03:38:38;16.70;99.90
50556;DHT22;36508;52.512;13.450;2023-06-14T03:41:03;16.70;99.90
50556;DHT22;36508;52.512;13.450;2023-06-14T03:43:29;16.70;99.90
50556;DHT22;36508;52.512;13.450;2023-06-14T03:45:55;16.70;99.90
50556;DHT22;36508;52.512;13.450;2023-06-14T03:48:21;16.70;99.90
50556;DHT22;36508;52.512;13.450;2023-06-14T03:50:47;16.70;99.90
50556;DHT22;36508;52.512;13.450;2023-06-14T03:53:12;16.50;99.90
50556;DHT22;36508;52.512;13.450;2023-06-14T03:55:38;16.30;99.90
50556;DHT22;36508;52.512;13.450;2023-06-14T03:58:04;16.20;99.90
50556;DHT22;36508;52.512;13.450;2023-06-14T04:00:30;16.30;99.90
50556;DHT22;36508;52.512;13.450;2023-06-14T04:02:57;16.40;99.90
50556;DHT22;36508;52.512;13.450;2023-06-14T04:05:24;16.30;99.90
50556;DHT22;36508;52.512;13.450;2023-06-14T04:07:51;16.40;99.90
50556;DHT22;36508;52.512;13.450;2023-06-14T04:10:17;16.70;99.90
50556;DHT22;36508;52.512;13.450;2023-06-14T04:12:47;16.50;99.90
50556;DHT22;36508;52.512;13.450;2023-06-14T04:15:13;16.60;99.90
50556;DHT22;36508;52.512;13.450;2023-06-14T04:17:39;16.80;99.90
50556;DHT22;36508;52.512;13.450;2023-06-14T04:20:05;16.60;99.90
50556;DHT22;36508;52.512;13.450;2023-06-14T04:22:33;16.60;99.90
50556;DHT22;36508;52.512;13.450;2023-06-14T04:24:59;16.70;99.90
50556;DHT22;36508;52.512;13.450;2023-06-14T04:27:26;16.80;99.90
50556;DHT22;36508;52.512;13.450;2023-06-14T04:29:52;16.90;99.90
50556;DHT22;36508;52.512;13.450;2023-06-14T04:32:26;16.90;99.90
50556;DHT22;36508;52.512;13.450;2023-06-14T04:34:58;17.00;99.90
50556;DHT22;36508;52.512;13.450;2023-06-14T04:37:25;17.00;99.90
50556;DHT22;36508;52.512;13.450;2023-06-14T04:39:54;17.00;99.90
50556;DHT22;36508;52.512;13.450;2023-06-14T04:42:24;16.90;99.90
50556;DHT22;36508;52.512;13.450;2023-06-14T04:44:51;17.00;99.90
50556;DHT22;36508;52.512;13.450;2023-06-14T04:47:17;17.20;99.90
50556;DHT22;36508;52.512;13.450;2023-06-14T04:49:43;17.20;99.90
50556;DHT22;36508;52.512;13.450;2023-06-14T04:52:10;17.10;99.90
50556;DHT22;36508;52.512;13.450;2023-06-14T04:54:41;17.10;99.90
50556;DHT22;36508;52.512;13.450;2023-06-14T04:57:10;17.20;99.90
50556;DHT22;36508;52.512;13.450;2023-06-14T04:59:39;17.30;99.90
50556;DHT22;36508;52.512;13.450;2023-06-14T05:02:05;17.40;99.90
50556;DHT22;36508;52.512;13.450;2023-06-14T05:04:30;17.40;99.90
50556;DHT22;36508;52.512;13.450;2023-06-14T05:06:56;17.40;99.90
50556;DHT22;36508;52.512;13.450;2023-06-14T05:09:22;17.40;99.90
50556;DHT22;36508;52.512;13.450;2023-06-14T05:11:47;17.40;99.90
50556;DHT22;36508;52.512;13.450;2023-06-14T05:14:13;17.20;99.90
50556;DHT22;36508;52.512;13.450;2023-06-14T05:16:40;17.30;99.90
50556;DHT22;36508;52.512;13.450;2023-06-14T05:19:06;17.40;99.90
50556;DHT22;36508;52.512;13.450;2023-06-14T05:21:31;17.40;99.90
50556;DHT22;36508;52.512;13.450;2023-06-14T05:23:59;17.60;99.90
50556;DHT22;36508;52.512;13.450;2023-06-14T05:26:24;17.70;99.90
50556;DHT22;36508;52.512;13.450;2023-06-14T05:28:57;17.90;99.90
50556;DHT22;36508;52.512;13.450;2023-06-14T05:31:23;18.10;99.90
50556;DHT22;36508;52.512;13.450;2023-06-14T05:33:50;18.10;99.90
50556;DHT22;36508;52.512;13.450;2023-06-14T05:36:16;18.20;99.90
50556;DHT22;36508;52.512;13.450;2023-06-14T05:38:41;18.10;99.90
50556;DHT22;36508;52.512;13.450;2023-06-14T05:41:07;18.20;99.90
50556;DHT22;36508;52.512;13.450;2023-06-14T05:43:32;18.20;99.90
50556;DHT22;36508;52.512;13.450;2023-06-14T05:45:58;18.20;99.90
50556;DHT22;36508;52.512;13.450;2023-06-14T05:48:24;18.10;99.90
50556;DHT22;36508;52.512;13.450;2023-06-14T05:50:49;18.00;99.90
50556;DHT22;36508;52.512;13.450;2023-06-14T05:53:15;18.10;99.90
50556;DHT22;36508;52.512;13.450;2023-06-14T05:55:41;18.10;99.90
50556;DHT22;36508;52.512;13.450;2023-06-14T05:58:06;17.90;99.90
50556;DHT22;36508;52.512;13.450;2023-06-14T06:00:32;18.00;99.90
50556;DHT22;36508;52.512;13.450;2023-06-14T06:02:58;18.00;99.90
50556;DHT22;36508;52.512;13.450;2023-06-14T06:05:24;18.00;99.90
50556;DHT22;36508;52.512;13.450;2023-06-14T06:07:50;18.00;99.90
50556;DHT22;36508;52.512;13.450;2023-06-14T06:10:16;18.00;99.90
50556;DHT22;36508;52.512;13.450;2023-06-14T06:12:42;17.90;99.90
50556;DHT22;36508;52.512;13.450;2023-06-14T06:15:08;17.80;99.90
50556;DHT22;36508;52.512;13.450;2023-06-14T06:17:37;17.80;99.90
50556;DHT22;36508;52.512;13.450;2023-06-14T06:20:04;17.90;99.90
50556;DHT22;36508;52.512;13.450;2023-06-14T06:22:31;17.90;99.90
50556;DHT22;36508;52.512;13.450;2023-06-14T06:24:56;17.90;99.90
50556;DHT22;36508;52.512;13.450;2023-06-14T06:27:22;17.80;99.90
50556;DHT22;36508;52.512;13.450;2023-06-14T06:29:47;17.80;99.90
50556;DHT22;36508;52.512;13.450;2023-06-14T06:32:14;17.90;99.90
50556;DHT22;36508;52.512;13.450;2023-06-14T06:34:40;17.80;99.90
50556;DHT22;36508;52.512;13.450;2023-06-14T06:37:06;17.80;99.90
50556;DHT22;36508;52.512;13.450;2023-06-14T06:39:31;17.80;99.90
50556;DHT22;36508;52.512;13.450;2023-06-14T06:41:58;17.90;99.90
50556;DHT22;36508;52.512;13.450;2023-06-14T06:44:23;17.90;99.90
50556;DHT22;36508;52.512;13.450;2023-06-14T06:46:49;17.90;99.90
50556;DHT22;36508;52.512;13.450;2023-06-14T06:49:15;17.80;99.90
50556;DHT22;36508;52.512;13.450;2023-06-14T06:51:48;17.90;99.90
50556;DHT22;36508;52.512;13.450;2023-06-14T06:54:24;18.10;99.90
50556;DHT22;36508;52.512;13.450;2023-06-14T06:56:50;18.10;99.90
50556;DHT22;36508;52.512;13.450;2023-06-14T06:59:15;18.30;99.90
50556;DHT22;36508;52.512;13.450;2023-06-14T07:01:42;18.40;99.90
50556;DHT22;36508;52.512;13.450;2023-06-14T07:04:07;18.60;99.90
50556;DHT22;36508;52.512;13.450;2023-06-14T07:06:33;18.60;99.90
50556;DHT22;36508;52.512;13.450;2023-06-14T07:08:59;18.80;99.90
50556;DHT22;36508;52.512;13.450;2023-06-14T07:11:27;18.90;99.90
50556;DHT22;36508;52.512;13.450;2023-06-14T07:13:52;19.10;99.90
50556;DHT22;36508;52.512;13.450;2023-06-14T07:16:18;19.10;99.90
50556;DHT22;36508;52.512;13.450;2023-06-14T07:18:44;19.20;99.90
50556;DHT22;36508;52.512;13.450;2023-06-14T07:21:09;19.30;99.90
50556;DHT22;36508;52.512;13.450;2023-06-14T07:23:35;19.10;99.90
50556;DHT22;36508;52.512;13.450;2023-06-14T07:26:01;18.90;99.90
50556;DHT22;36508;52.512;13.450;2023-06-14T07:28:27;19.00;99.90
50556;DHT22;36508;52.512;13.450;2023-06-14T07:30:52;19.00;99.90
50556;DHT22;36508;52.512;13.450;2023-06-14T07:33:18;19.20;99.90
50556;DHT22;36508;52.512;13.450;2023-06-14T07:35:43;19.40;99.90
50556;DHT22;36508;52.512;13.450;2023-06-14T07:38:09;19.60;99.90
50556;DHT22;36508;52.512;13.450;2023-06-14T07:40:35;19.80;99.90
50556;DHT22;36508;52.512;13.450;2023-06-14T07:43:00;19.70;99.90
50556;DHT22;36508;52.512;13.450;2023-06-14T07:45:27;19.80;99.90
50556;DHT22;36508;52.512;13.450;2023-06-14T07:47:53;19.70;99.90
50556;DHT22;36508;52.512;13.450;2023-06-14T07:50:18;19.80;99.90
50556;DHT22;36508;52.512;13.450;2023-06-14T07:52:45;19.90;99.90
50556;DHT22;36508;52.512;13.450;2023-06-14T07:55:10;20.00;99.90
50556;DHT22;36508;52.512;13.450;2023-06-14T07:57:36;20.00;99.90
50556;DHT22;36508;52.512;13.450;2023-06-14T08:00:02;20.00;99.90
50556;DHT22;36508;52.512;13.450;2023-06-14T08:02:31;20.00;99.90
50556;DHT22;36508;52.512;13.450;2023-06-14T08:04:57;20.00;99.90
50556;DHT22;36508;52.512;13.450;2023-06-14T08:07:23;20.00;99.90
50556;DHT22;36508;52.512;13.450;2023-06-14T08:09:49;20.00;99.90
50556;DHT22;36508;52.512;13.450;2023-06-14T08:12:15;20.10;99.90
50556;DHT22;36508;52.512;13.450;2023-06-14T08:14:42;20.20;99.90
50556;DHT22;36508;52.512;13.450;2023-06-14T08:17:08;20.30;99.90
50556;DHT22;36508;52.512;13.450;2023-06-14T08:19:33;20.40;99.90
50556;DHT22;36508;52.512;13.450;2023-06-14T08:21:59;20.40;99.90
50556;DHT22;36508;52.512;13.450;2023-06-14T08:24:25;20.40;99.90
50556;DHT22;36508;52.512;13.450;2023-06-14T08:26:53;20.60;99.90
50556;DHT22;36508;52.512;13.450;2023-06-14T08:29:18;20.70;99.90
50556;DHT22;36508;52.512;13.450;2023-06-14T08:31:44;20.90;99.90
50556;DHT22;36508;52.512;13.450;2023-06-14T08:34:10;20.90;99.90
50556;DHT22;36508;52.512;13.450;2023-06-14T08:36:36;20.80;99.90
50556;DHT22;36508;52.512;13.450;2023-06-14T08:39:02;20.60;99.90
50556;DHT22;36508;52.512;13.450;2023-06-14T08:41:28;20.40;99.90
50556;DHT22;36508;52.512;13.450;2023-06-14T08:43:55;20.40;99.90
50556;DHT22;36508;52.512;13.450;2023-06-14T08:46:21;20.40;99.90
50556;DHT22;36508;52.512;13.450;2023-06-14T08:48:51;20.30;99.90
50556;DHT22;36508;52.512;13.450;2023-06-14T08:51:18;20.50;99.90
50556;DHT22;36508;52.512;13.450;2023-06-14T08:53:45;20.70;99.90
50556;DHT22;36508;52.512;13.450;2023-06-14T08:56:12;20.80;99.90
50556;DHT22;36508;52.512;13.450;2023-06-14T08:58:44;20.80;99.90
50556;DHT22;36508;52.512;13.450;2023-06-14T09:01:11;21.10;99.90
50556;DHT22;36508;52.512;13.450;2023-06-14T09:03:40;21.10;99.90
50556;DHT22;36508;52.512;13.450;2023-06-14T09:06:07;21.20;99.90
50556;DHT22;36508;52.512;13.450;2023-06-14T09:08:34;21.30;99.90
50556;DHT22;36508;52.512;13.450;2023-06-14T09:11:01;21.20;99.90
50556;DHT22;36508;52.512;13.450;2023-06-14T09:13:27;21.60;99.90
50556;DHT22;36508;52.512;13.450;2023-06-14T09:15:53;21.80;99.90
50556;DHT22;36508;52.512;13.450;2023-06-14T09:18:19;22.00;99.90
50556;DHT22;36508;52.512;13.450;2023-06-14T09:20:47;22.10;99.90
50556;DHT22;36508;52.512;13.450;2023-06-14T09:23:14;22.30;99.90
50556;DHT22;36508;52.512;13.450;2023-06-14T09:25:46;22.00;99.90
50556;DHT22;36508;52.512;13.450;2023-06-14T09:28:12;22.00;99.90
50556;DHT22;36508;52.512;13.450;2023-06-14T09:30:38;21.80;99.90
50556;DHT22;36508;52.512;13.450;2023-06-14T09:33:03;21.80;99.90
50556;DHT22;36508;52.512;13.450;2023-06-14T09:35:31;21.80;99.90
50556;DHT22;36508;52.512;13.450;2023-06-14T09:37:57;21.70;99.90
50556;DHT22;36508;52.512;13.450;2023-06-14T09:40:23;21.70;99.90
50556;DHT22;36508;52.512;13.450;2023-06-14T09:42:49;21.90;99.90
50556;DHT22;36508;52.512;13.450;2023-06-14T09:45:15;21.90;99.90
50556;DHT22;36508;52.512;13.450;2023-06-14T09:47:48;22.10;99.90
50556;DHT22;36508;52.512;13.450;2023-06-14T09:50:14;22.40;99.90
50556;DHT22;36508;52.512;13.450;2023-06-14T09:52:43;22.20;99.90
50556;DHT22;36508;52.512;13.450;2023-06-14T09:55:12;22.00;99.90
50556;DHT22;36508;52.512;13.450;2023-06-14T09:57:41;22.20;99.90
50556;DHT22;36508;52.512;13.450;2023-06-14T10:00:09;22.30;99.90
50556;DHT22;36508;52.512;13.450;2023-06-14T10:02:37;22.30;99.90
50556;DHT22;36508;52.512;13.450;2023-06-14T10:05:08;22.30;99.90
50556;DHT22;36508;52.512;13.450;2023-06-14T10:10:20;22.30;99.90
50556;DHT22;36508;52.512;13.450;2023-06-14T10:12:46;22.20;99.90
50556;DHT22;36508;52.512;13.450;2023-06-14T10:18:23;22.10;99.90
50556;DHT22;36508;52.512;13.450;2023-06-14T10:21:02;22.20;99.90
50556;DHT22;36508;52.512;13.450;2023-06-14T10:23:33;22.20;99.90
50556;DHT22;36508;52.512;13.450;2023-06-14T10:26:01;22.40;99.90
50556;DHT22;36508;52.512;13.450;2023-06-14T10:28:26;22.40;99.90
50556;DHT22;36508;52.512;13.450;2023-06-14T10:31:09;22.20;99.90
50556;DHT22;36508;52.512;13.450;2023-06-14T10:33:56;22.20;99.90
50556;DHT22;36508;52.512;13.450;2023-06-14T10:38:57;22.30;99.90
50556;DHT22;36508;52.512;13.450;2023-06-14T10:41:23;22.00;99.90
50556;DHT22;36508;52.512;13.450;2023-06-14T10:43:49;21.90;99.90
50556;DHT22;36508;52.512;13.450;2023-06-14T10:48:43;22.10;99.90
50556;DHT22;36508;52.512;13.450;2023-06-14T10:51:19;22.10;99.90
50556;DHT22;36508;52.512;13.450;2023-06-14T10:53:46;22.20;99.90
50556;DHT22;36508;52.512;13.450;2023-06-14T10:56:29;22.40;99.90
50556;DHT22;36508;52.512;13.450;2023-06-14T10:58:57;22.80;99.90
50556;DHT22;36508;52.512;13.450;2023-06-14T11:01:41;23.30;99.90
50556;DHT22;36508;52.512;13.450;2023-06-14T11:04:11;23.40;99.90
50556;DHT22;36508;52.512;13.450;2023-06-14T11:09:45;23.70;99.90
50556;DHT22;36508;52.512;13.450;2023-06-14T11:12:17;23.00;99.90
50556;DHT22;36508;52.512;13.450;2023-06-14T11:14:46;23.40;99.90
50556;DHT22;36508;52.512;13.450;2023-06-14T11:17:12;23.50;99.90
50556;DHT22;36508;52.512;13.450;2023-06-14T11:19:38;23.60;99.90
50556;DHT22;36508;52.512;13.450;2023-06-14T11:22:04;23.60;99.90
50556;DHT22;36508;52.512;13.450;2023-06-14T11:24:31;23.20;99.90
50556;DHT22;36508;52.512;13.450;2023-06-14T11:26:57;23.40;99.90
50556;DHT22;36508;52.512;13.450;2023-06-14T11:29:23;23.70;99.90
50556;DHT22;36508;52.512;13.450;2023-06-14T11:31:50;23.80;99.90
50556;DHT22;36508;52.512;13.450;2023-06-14T11:34:15;23.90;99.90
50556;DHT22;36508;52.512;13.450;2023-06-14T11:36:42;24.00;99.90
50556;DHT22;36508;52.512;13.450;2023-06-14T11:39:08;24.10;99.90
50556;DHT22;36508;52.512;13.450;2023-06-14T11:41:44;24.10;99.90
50556;DHT22;36508;52.512;13.450;2023-06-14T11:44:10;24.00;99.90
50556;DHT22;36508;52.512;13.450;2023-06-14T11:46:37;23.90;99.90
50556;DHT22;36508;52.512;13.450;2023-06-14T11:49:03;24.20;99.90
50556;DHT22;36508;52.512;13.450;2023-06-14T11:51:33;24.40;99.90
50556;DHT22;36508;52.512;13.450;2023-06-14T11:54:03;24.30;99.90
50556;DHT22;36508;52.512;13.450;2023-06-14T11:56:29;24.30;98.90
50556;DHT22;36508;52.512;13.450;2023-06-14T11:58:55;24.00;99.10
50556;DHT22;36508;52.512;13.450;2023-06-14T12:01:22;24.50;99.10
50556;DHT22;36508;52.512;13.450;2023-06-14T12:03:51;25.00;98.80
50556;DHT22;36508;52.512;13.450;2023-06-14T12:06:28;26.30;97.50
50556;DHT22;36508;52.512;13.450;2023-06-14T12:08:56;27.70;95.80
50556;DHT22;36508;52.512;13.450;2023-06-14T12:11:22;28.40;91.50
50556;DHT22;36508;52.512;13.450;2023-06-14T12:13:49;29.60;90.30
50556;DHT22;36508;52.512;13.450;2023-06-14T12:16:14;31.20;85.00
50556;DHT22;36508;52.512;13.450;2023-06-14T12:18:40;31.40;80.80
50556;DHT22;36508;52.512;13.450;2023-06-14T12:21:09;33.10;77.40
50556;DHT22;36508;52.512;13.450;2023-06-14T12:23:49;32.20;71.10
50556;DHT22;36508;52.512;13.450;2023-06-14T12:26:20;30.30;75.60
50556;DHT22;36508;52.512;13.450;2023-06-14T12:28:47;28.70;77.80
50556;DHT22;36508;52.512;13.450;2023-06-14T12:31:14;28.70;81.90
50556;DHT22;36508;52.512;13.450;2023-06-14T12:33:43;30.10;80.30
50556;DHT22;36508;52.512;13.450;2023-06-14T12:36:11;30.40;72.80
50556;DHT22;36508;52.512;13.450;2023-06-14T12:38:37;29.50;75.20
50556;DHT22;36508;52.512;13.450;2023-06-14T12:41:03;28.80;73.60
50556;DHT22;36508;52.512;13.450;2023-06-14T12:43:29;28.40;73.30
50556;DHT22;36508;52.512;13.450;2023-06-14T12:45:55;28.10;71.00
50556;DHT22;36508;52.512;13.450;2023-06-14T12:48:21;28.60;70.80
50556;DHT22;36508;52.512;13.450;2023-06-14T12:53:15;29.80;68.80
50556;DHT22;36508;52.512;13.450;2023-06-14T12:55:40;29.80;68.10
50556;DHT22;36508;52.512;13.450;2023-06-14T12:58:06;29.10;67.90
50556;DHT22;36508;52.512;13.450;2023-06-14T13:00:32;28.60;67.40
50556;DHT22;36508;52.512;13.450;2023-06-14T13:02:58;28.00;68.70
50556;DHT22;36508;52.512;13.450;2023-06-14T13:05:24;28.10;71.50
50556;DHT22;36508;52.512;13.450;2023-06-14T13:07:50;28.40;68.70
50556;DHT22;36508;52.512;13.450;2023-06-14T13:10:16;28.00;70.30
50556;DHT22;36508;52.512;13.450;2023-06-14T13:12:42;27.70;70.70
50556;DHT22;36508;52.512;13.450;2023-06-14T13:15:08;27.30;67.80
50556;DHT22;36508;52.512;13.450;2023-06-14T13:17:34;26.80;68.40
50556;DHT22;36508;52.512;13.450;2023-06-14T13:20:07;26.40;69.90
50556;DHT22;36508;52.512;13.450;2023-06-14T13:22:34;26.20;72.30
50556;DHT22;36508;52.512;13.450;2023-06-14T13:25:00;26.20;70.70
50556;DHT22;36508;52.512;13.450;2023-06-14T13:27:26;26.20;72.40
50556;DHT22;36508;52.512;13.450;2023-06-14T13:29:52;26.40;68.80
50556;DHT22;36508;52.512;13.450;2023-06-14T13:32:18;26.60;69.60
50556;DHT22;36508;52.512;13.450;2023-06-14T13:34:43;26.90;69.00
50556;DHT22;36508;52.512;13.450;2023-06-14T13:37:09;27.20;69.20
50556;DHT22;36508;52.512;13.450;2023-06-14T13:39:35;27.50;68.40
50556;DHT22;36508;52.512;13.450;2023-06-14T13:42:03;27.70;69.30
50556;DHT22;36508;52.512;13.450;2023-06-14T13:44:28;27.30;68.20
50556;DHT22;36508;52.512;13.450;2023-06-14T13:46:54;27.20;69.30
50556;DHT22;36508;52.512;13.450;2023-06-14T13:49:20;27.30;68.20
50556;DHT22;36508;52.512;13.450;2023-06-14T13:51:46;27.50;68.40
50556;DHT22;36508;52.512;13.450;2023-06-14T13:54:13;27.50;65.20
50556;DHT22;36508;52.512;13.450;2023-06-14T13:56:40;27.30;65.80
50556;DHT22;36508;52.512;13.450;2023-06-14T13:59:06;27.10;66.30
50556;DHT22;36508;52.512;13.450;2023-06-14T14:01:31;27.00;66.50
50556;DHT22;36508;52.512;13.450;2023-06-14T14:03:57;27.00;69.10
50556;DHT22;36508;52.512;13.450;2023-06-14T14:06:24;27.30;69.50
50556;DHT22;36508;52.512;13.450;2023-06-14T14:08:50;27.40;65.40
50556;DHT22;36508;52.512;13.450;2023-06-14T14:11:16;27.10;67.20
50556;DHT22;36508;52.512;13.450;2023-06-14T14:13:42;26.80;69.80
50556;DHT22;36508;52.512;13.450;2023-06-14T14:16:08;26.60;70.40
50556;DHT22;36508;52.512;13.450;2023-06-14T14:18:33;26.70;70.30
50556;DHT22;36508;52.512;13.450;2023-06-14T14:20:59;26.70;70.50
50556;DHT22;36508;52.512;13.450;2023-06-14T14:23:26;26.60;69.50
50556;DHT22;36508;52.512;13.450;2023-06-14T14:25:51;26.60;70.00
50556;DHT22;36508;52.512;13.450;2023-06-14T14:28:17;26.70;69.50
50556;DHT22;36508;52.512;13.450;2023-06-14T14:30:44;26.70;70.00
50556;DHT22;36508;52.512;13.450;2023-06-14T14:33:11;26.80;68.90
50556;DHT22;36508;52.512;13.450;2023-06-14T14:35:41;26.70;69.30
50556;DHT22;36508;52.512;13.450;2023-06-14T14:38:07;26.60;69.10
50556;DHT22;36508;52.512;13.450;2023-06-14T14:40:33;26.50;67.00
50556;DHT22;36508;52.512;13.450;2023-06-14T14:42:58;26.50;69.30
50556;DHT22;36508;52.512;13.450;2023-06-14T14:45:24;26.40;68.00
50556;DHT22;36508;52.512;13.450;2023-06-14T14:47:49;26.30;67.00
50556;DHT22;36508;52.512;13.450;2023-06-14T14:50:15;25.90;67.50
50556;DHT22;36508;52.512;13.450;2023-06-14T14:52:41;25.60;67.30
50556;DHT22;36508;52.512;13.450;2023-06-14T14:55:07;25.40;70.20
50556;DHT22;36508;52.512;13.450;2023-06-14T14:57:33;25.50;70.60
50556;DHT22;36508;52.512;13.450;2023-06-14T14:59:59;25.40;71.90
50556;DHT22;36508;52.512;13.450;2023-06-14T15:02:24;25.30;73.00
50556;DHT22;36508;52.512;13.450;2023-06-14T15:04:50;25.10;74.00
50556;DHT22;36508;52.512;13.450;2023-06-14T15:07:16;24.80;74.00
50556;DHT22;36508;52.512;13.450;2023-06-14T15:09:42;24.80;74.50
50556;DHT22;36508;52.512;13.450;2023-06-14T15:12:08;24.60;74.00
50556;DHT22;36508;52.512;13.450;2023-06-14T15:14:36;24.40;74.50
50556;DHT22;36508;52.512;13.450;2023-06-14T15:17:01;24.30;74.40
50556;DHT22;36508;52.512;13.450;2023-06-14T15:19:28;24.20;75.20
50556;DHT22;36508;52.512;13.450;2023-06-14T15:21:53;24.20;75.30
50556;DHT22;36508;52.512;13.450;2023-06-14T15:24:19;24.10;75.00
50556;DHT22;36508;52.512;13.450;2023-06-14T15:26:45;24.00;75.80
50556;DHT22;36508;52.512;13.450;2023-06-14T15:29:11;24.00;76.10
50556;DHT22;36508;52.512;13.450;2023-06-14T15:31:36;24.00;76.30
50556;DHT22;36508;52.512;13.450;2023-06-14T15:34:02;24.00;76.90